sensor_id;sensor_type;location;lat;lon;timestamp;P1;durP1;ratioP1;P2;durP2;ratioP2
63259;SDS011;49390;51.380;0.098;2022-09-03T00:00:51;39.08;;;23.73;;
63259;SDS011;49390;51.380;0.098;2022-09-03T00:03:28;37.08;;;23.23;;
63259;SDS011;49390;51.380;0.098;2022-09-03T00:06:17;37.92;;;23.73;;
63259;SDS011;49390;51.380;0.098;2022-09-03T00:09:08;39.92;;;24.17;;
63259;SDS011;49390;51.380;0.098;2022-09-03T00:11:51;38.42;;;24.38;;
63259;SDS011;49390;51.380;0.098;2022-09-03T00:14:36;40.33;;;26.20;;
63259;SDS011;49390;51.380;0.098;2022-09-03T00:20:11;40.30;;;25.38;;
63259;SDS011;49390;51.380;0.098;2022-09-03T00:22:49;44.67;;;26.03;;
63259;SDS011;49390;51.380;0.098;2022-09-03T00:25:22;39.45;;;25.17;;
63259;SDS011;49390;51.380;0.098;2022-09-03T00:28:04;44.33;;;26.38;;
63259;SDS011;49390;51.380;0.098;2022-09-03T00:30:40;41.50;;;27.15;;
63259;SDS011;49390;51.380;0.098;2022-09-03T00:33:10;42.25;;;26.17;;
63259;SDS011;49390;51.380;0.098;2022-09-03T00:35:56;43.55;;;26.95;;
63259;SDS011;49390;51.380;0.098;2022-09-03T00:38:41;41.35;;;25.80;;
63259;SDS011;49390;51.380;0.098;2022-09-03T00:41:15;43.17;;;25.23;;
63259;SDS011;49390;51.380;0.098;2022-09-03T00:44:04;42.42;;;25.25;;
63259;SDS011;49390;51.380;0.098;2022-09-03T01:00:58;45.25;;;26.80;;
63259;SDS011;49390;51.380;0.098;2022-09-03T01:03:38;43.15;;;26.20;;
63259;SDS011;49390;51.380;0.098;2022-09-03T01:06:31;40.97;;;25.95;;
63259;SDS011;49390;51.380;0.098;2022-09-03T01:09:06;53.08;;;31.38;;
63259;SDS011;49390;51.380;0.098;2022-09-03T01:11:56;54.33;;;31.75;;
63259;SDS011;49390;51.380;0.098;2022-09-03T01:18:08;56.85;;;32.67;;
63259;SDS011;49390;51.380;0.098;2022-09-03T01:20:35;61.33;;;33.33;;
63259;SDS011;49390;51.380;0.098;2022-09-03T01:34:35;61.15;;;33.08;;
63259;SDS011;49390;51.380;0.098;2022-09-03T01:37:33;60.90;;;33.78;;
63259;SDS011;49390;51.380;0.098;2022-09-03T01:43:28;58.08;;;33.85;;
63259;SDS011;49390;51.380;0.098;2022-09-03T01:46:18;55.53;;;32.33;;
63259;SDS011;49390;51.380;0.098;2022-09-03T01:52:04;59.90;;;33.03;;
63259;SDS011;49390;51.380;0.098;2022-09-03T01:54:50;56.40;;;32.42;;
63259;SDS011;49390;51.380;0.098;2022-09-03T02:00:24;54.42;;;31.33;;
63259;SDS011;49390;51.380;0.098;2022-09-03T02:02:55;57.17;;;32.63;;
63259;SDS011;49390;51.380;0.098;2022-09-03T02:05:34;56.65;;;33.22;;
63259;SDS011;49390;51.380;0.098;2022-09-03T02:08:42;55.22;;;32.72;;
63259;SDS011;49390;51.380;0.098;2022-09-03T02:11:11;59.05;;;34.00;;
63259;SDS011;49390;51.380;0.098;2022-09-03T02:13:40;56.13;;;33.08;;
63259;SDS011;49390;51.380;0.098;2022-09-03T02:16:14;53.20;;;33.13;;
63259;SDS011;49390;51.380;0.098;2022-09-03T02:18:47;53.75;;;32.13;;
63259;SDS011;49390;51.380;0.098;2022-09-03T02:21:19;67.60;;;34.33;;
63259;SDS011;49390;51.380;0.098;2022-09-03T02:23:51;63.08;;;33.05;;
63259;SDS011;49390;51.380;0.098;2022-09-03T02:26:20;56.22;;;32.65;;
63259;SDS011;49390;51.380;0.098;2022-09-03T02:28:50;63.83;;;34.92;;
63259;SDS011;49390;51.380;0.098;2022-09-03T02:31:21;64.97;;;38.03;;
63259;SDS011;49390;51.380;0.098;2022-09-03T02:33:49;64.00;;;35.53;;
63259;SDS011;49390;51.380;0.098;2022-09-03T02:36:20;65.95;;;35.97;;
63259;SDS011;49390;51.380;0.098;2022-09-03T02:38:54;60.65;;;35.47;;
63259;SDS011;49390;51.380;0.098;2022-09-03T02:41:23;62.35;;;36.42;;
63259;SDS011;49390;51.380;0.098;2022-09-03T02:43:55;70.68;;;37.50;;
63259;SDS011;49390;51.380;0.098;2022-09-03T02:46:34;68.57;;;37.75;;
63259;SDS011;49390;51.380;0.098;2022-09-03T02:49:13;70.93;;;37.58;;
63259;SDS011;49390;51.380;0.098;2022-09-03T02:51:42;63.55;;;37.25;;
63259;SDS011;49390;51.380;0.098;2022-09-03T02:54:11;64.00;;;35.30;;
63259;SDS011;49390;51.380;0.098;2022-09-03T02:56:48;61.25;;;34.05;;
63259;SDS011;49390;51.380;0.098;2022-09-03T02:59:16;57.15;;;32.58;;
63259;SDS011;49390;51.380;0.098;2022-09-03T03:01:45;54.38;;;32.15;;
63259;SDS011;49390;51.380;0.098;2022-09-03T03:04:14;56.00;;;32.25;;
63259;SDS011;49390;51.380;0.098;2022-09-03T03:06:42;52.80;;;30.52;;
63259;SDS011;49390;51.380;0.098;2022-09-03T03:09:14;55.03;;;31.52;;
63259;SDS011;49390;51.380;0.098;2022-09-03T03:11:42;53.65;;;32.42;;
63259;SDS011;49390;51.380;0.098;2022-09-03T03:14:10;48.40;;;29.02;;
63259;SDS011;49390;51.380;0.098;2022-09-03T03:16:39;57.75;;;32.03;;
63259;SDS011;49390;51.380;0.098;2022-09-03T03:19:07;55.45;;;31.17;;
63259;SDS011;49390;51.380;0.098;2022-09-03T03:21:35;58.70;;;32.10;;
63259;SDS011;49390;51.380;0.098;2022-09-03T03:24:03;56.08;;;32.17;;
63259;SDS011;49390;51.380;0.098;2022-09-03T03:26:33;55.85;;;29.88;;
63259;SDS011;49390;51.380;0.098;2022-09-03T03:29:02;52.55;;;31.33;;
63259;SDS011;49390;51.380;0.098;2022-09-03T03:31:32;55.03;;;31.10;;
63259;SDS011;49390;51.380;0.098;2022-09-03T03:34:01;57.67;;;32.78;;
63259;SDS011;49390;51.380;0.098;2022-09-03T03:36:31;56.65;;;32.28;;
63259;SDS011;49390;51.380;0.098;2022-09-03T03:39:01;56.03;;;31.88;;
63259;SDS011;49390;51.380;0.098;2022-09-03T03:41:33;60.28;;;32.70;;
63259;SDS011;49390;51.380;0.098;2022-09-03T03:44:04;61.10;;;34.17;;
63259;SDS011;49390;51.380;0.098;2022-09-03T03:46:34;62.70;;;35.03;;
63259;SDS011;49390;51.380;0.098;2022-09-03T03:49:03;61.53;;;34.97;;
63259;SDS011;49390;51.380;0.098;2022-09-03T03:51:35;64.10;;;36.33;;
63259;SDS011;49390;51.380;0.098;2022-09-03T03:54:04;61.63;;;33.88;;
63259;SDS011;49390;51.380;0.098;2022-09-03T03:56:33;59.55;;;33.60;;
63259;SDS011;49390;51.380;0.098;2022-09-03T03:59:01;56.30;;;33.42;;
63259;SDS011;49390;51.380;0.098;2022-09-03T04:01:30;63.88;;;34.00;;
63259;SDS011;49390;51.380;0.098;2022-09-03T04:03:59;63.65;;;34.75;;
63259;SDS011;49390;51.380;0.098;2022-09-03T04:06:28;58.72;;;33.85;;
63259;SDS011;49390;51.380;0.098;2022-09-03T04:08:57;59.72;;;34.75;;
63259;SDS011;49390;51.380;0.098;2022-09-03T04:11:25;59.92;;;33.70;;
63259;SDS011;49390;51.380;0.098;2022-09-03T04:13:54;67.50;;;37.25;;
63259;SDS011;49390;51.380;0.098;2022-09-03T04:16:23;70.05;;;38.28;;
63259;SDS011;49390;51.380;0.098;2022-09-03T04:21:26;69.50;;;35.72;;
63259;SDS011;49390;51.380;0.098;2022-09-03T04:23:56;62.83;;;34.63;;
63259;SDS011;49390;51.380;0.098;2022-09-03T04:26:28;65.93;;;36.38;;
63259;SDS011;49390;51.380;0.098;2022-09-03T04:28:58;72.13;;;39.30;;
63259;SDS011;49390;51.380;0.098;2022-09-03T04:31:29;78.47;;;41.83;;
63259;SDS011;49390;51.380;0.098;2022-09-03T04:34:00;76.65;;;39.95;;
63259;SDS011;49390;51.380;0.098;2022-09-03T04:36:29;78.72;;;40.80;;
63259;SDS011;49390;51.380;0.098;2022-09-03T04:38:58;77.38;;;40.85;;
63259;SDS011;49390;51.380;0.098;2022-09-03T04:41:29;78.82;;;41.15;;
63259;SDS011;49390;51.380;0.098;2022-09-03T04:43:58;77.65;;;40.63;;
63259;SDS011;49390;51.380;0.098;2022-09-03T04:46:27;78.93;;;40.78;;
63259;SDS011;49390;51.380;0.098;2022-09-03T04:49:00;84.50;;;40.22;;
63259;SDS011;49390;51.380;0.098;2022-09-03T04:51:29;77.72;;;40.75;;
63259;SDS011;49390;51.380;0.098;2022-09-03T04:54:01;79.25;;;40.63;;
63259;SDS011;49390;51.380;0.098;2022-09-03T04:56:30;84.78;;;43.90;;
63259;SDS011;49390;51.380;0.098;2022-09-03T04:59:01;79.18;;;42.25;;
63259;SDS011;49390;51.380;0.098;2022-09-03T05:01:35;76.88;;;40.85;;
63259;SDS011;49390;51.380;0.098;2022-09-03T05:04:06;84.15;;;42.38;;
63259;SDS011;49390;51.380;0.098;2022-09-03T05:06:34;85.15;;;42.33;;
63259;SDS011;49390;51.380;0.098;2022-09-03T05:09:03;71.72;;;40.15;;
63259;SDS011;49390;51.380;0.098;2022-09-03T05:11:33;71.43;;;38.15;;
63259;SDS011;49390;51.380;0.098;2022-09-03T05:16:16;68.80;;;37.00;;
63259;SDS011;49390;51.380;0.098;2022-09-03T05:18:46;66.05;;;36.75;;
63259;SDS011;49390;51.380;0.098;2022-09-03T05:21:15;72.20;;;36.58;;
63259;SDS011;49390;51.380;0.098;2022-09-03T05:23:46;66.18;;;35.75;;
63259;SDS011;49390;51.380;0.098;2022-09-03T05:26:16;67.68;;;36.20;;
63259;SDS011;49390;51.380;0.098;2022-09-03T05:28:46;67.80;;;37.77;;
63259;SDS011;49390;51.380;0.098;2022-09-03T05:31:19;76.82;;;40.50;;
63259;SDS011;49390;51.380;0.098;2022-09-03T05:33:52;69.40;;;37.47;;
63259;SDS011;49390;51.380;0.098;2022-09-03T05:36:25;68.70;;;37.38;;
63259;SDS011;49390;51.380;0.098;2022-09-03T05:38:56;66.53;;;37.78;;
63259;SDS011;49390;51.380;0.098;2022-09-03T05:41:26;72.18;;;38.13;;
63259;SDS011;49390;51.380;0.098;2022-09-03T05:43:56;69.88;;;37.78;;
63259;SDS011;49390;51.380;0.098;2022-09-03T05:46:28;71.82;;;38.38;;
63259;SDS011;49390;51.380;0.098;2022-09-03T05:49:05;73.22;;;39.60;;
63259;SDS011;49390;51.380;0.098;2022-09-03T05:51:35;77.75;;;38.97;;
63259;SDS011;49390;51.380;0.098;2022-09-03T05:54:03;73.03;;;37.95;;
63259;SDS011;49390;51.380;0.098;2022-09-03T05:56:32;67.85;;;37.83;;
63259;SDS011;49390;51.380;0.098;2022-09-03T05:59:03;74.68;;;37.50;;
63259;SDS011;49390;51.380;0.098;2022-09-03T06:01:36;75.20;;;38.92;;
63259;SDS011;49390;51.380;0.098;2022-09-03T06:04:07;72.25;;;38.15;;
63259;SDS011;49390;51.380;0.098;2022-09-03T06:09:08;80.15;;;39.90;;
63259;SDS011;49390;51.380;0.098;2022-09-03T06:14:09;84.95;;;42.05;;
63259;SDS011;49390;51.380;0.098;2022-09-03T06:16:43;86.88;;;43.20;;
63259;SDS011;49390;51.380;0.098;2022-09-03T06:19:16;84.38;;;42.17;;
63259;SDS011;49390;51.380;0.098;2022-09-03T06:21:44;87.93;;;43.88;;
63259;SDS011;49390;51.380;0.098;2022-09-03T06:24:14;89.85;;;42.67;;
63259;SDS011;49390;51.380;0.098;2022-09-03T06:26:44;78.75;;;41.38;;
63259;SDS011;49390;51.380;0.098;2022-09-03T06:29:13;82.68;;;41.40;;
63259;SDS011;49390;51.380;0.098;2022-09-03T06:31:41;82.13;;;41.88;;
63259;SDS011;49390;51.380;0.098;2022-09-03T06:34:09;84.18;;;40.92;;
63259;SDS011;49390;51.380;0.098;2022-09-03T06:36:38;83.82;;;41.13;;
63259;SDS011;49390;51.380;0.098;2022-09-03T06:39:07;81.22;;;42.10;;
63259;SDS011;49390;51.380;0.098;2022-09-03T06:41:35;83.32;;;42.70;;
63259;SDS011;49390;51.380;0.098;2022-09-03T06:44:05;87.07;;;42.15;;
63259;SDS011;49390;51.380;0.098;2022-09-03T06:46:39;75.40;;;40.05;;
63259;SDS011;49390;51.380;0.098;2022-09-03T06:49:09;79.32;;;40.85;;
63259;SDS011;49390;51.380;0.098;2022-09-03T06:51:38;82.90;;;43.15;;
63259;SDS011;49390;51.380;0.098;2022-09-03T06:54:09;79.70;;;40.90;;
63259;SDS011;49390;51.380;0.098;2022-09-03T06:56:39;84.22;;;41.75;;
63259;SDS011;49390;51.380;0.098;2022-09-03T06:59:10;77.50;;;39.92;;
63259;SDS011;49390;51.380;0.098;2022-09-03T07:04:11;69.78;;;38.42;;
63259;SDS011;49390;51.380;0.098;2022-09-03T07:06:42;73.82;;;40.97;;
63259;SDS011;49390;51.380;0.098;2022-09-03T07:09:11;74.38;;;40.25;;
63259;SDS011;49390;51.380;0.098;2022-09-03T07:11:41;72.20;;;38.92;;
63259;SDS011;49390;51.380;0.098;2022-09-03T07:14:15;78.28;;;41.28;;
63259;SDS011;49390;51.380;0.098;2022-09-03T07:16:46;71.80;;;38.95;;
63259;SDS011;49390;51.380;0.098;2022-09-03T07:19:15;68.15;;;36.72;;
63259;SDS011;49390;51.380;0.098;2022-09-03T07:21:44;58.85;;;33.50;;
63259;SDS011;49390;51.380;0.098;2022-09-03T07:24:18;64.63;;;35.42;;
63259;SDS011;49390;51.380;0.098;2022-09-03T07:26:49;58.28;;;33.40;;
63259;SDS011;49390;51.380;0.098;2022-09-03T07:29:17;55.35;;;33.22;;
63259;SDS011;49390;51.380;0.098;2022-09-03T07:34:18;52.70;;;30.65;;
63259;SDS011;49390;51.380;0.098;2022-09-03T07:36:52;51.67;;;29.30;;
63259;SDS011;49390;51.380;0.098;2022-09-03T07:39:20;36.08;;;22.60;;
63259;SDS011;49390;51.380;0.098;2022-09-03T07:41:49;38.15;;;23.05;;
63259;SDS011;49390;51.380;0.098;2022-09-03T07:44:18;33.72;;;20.95;;
63259;SDS011;49390;51.380;0.098;2022-09-03T07:46:46;31.42;;;19.70;;
63259;SDS011;49390;51.380;0.098;2022-09-03T07:49:19;28.60;;;18.73;;
63259;SDS011;49390;51.380;0.098;2022-09-03T07:51:48;29.83;;;18.38;;
63259;SDS011;49390;51.380;0.098;2022-09-03T07:54:19;29.00;;;18.25;;
63259;SDS011;49390;51.380;0.098;2022-09-03T07:56:48;27.35;;;18.30;;
63259;SDS011;49390;51.380;0.098;2022-09-03T07:59:17;27.92;;;17.50;;
63259;SDS011;49390;51.380;0.098;2022-09-03T08:01:46;26.58;;;18.55;;
63259;SDS011;49390;51.380;0.098;2022-09-03T08:04:14;26.85;;;17.80;;
63259;SDS011;49390;51.380;0.098;2022-09-03T08:06:42;26.02;;;16.52;;
63259;SDS011;49390;51.380;0.098;2022-09-03T08:09:11;26.95;;;16.55;;
63259;SDS011;49390;51.380;0.098;2022-09-03T08:11:41;26.38;;;16.95;;
63259;SDS011;49390;51.380;0.098;2022-09-03T08:14:11;24.35;;;15.80;;
63259;SDS011;49390;51.380;0.098;2022-09-03T08:16:42;28.23;;;18.80;;
63259;SDS011;49390;51.380;0.098;2022-09-03T08:19:13;28.83;;;19.58;;
63259;SDS011;49390;51.380;0.098;2022-09-03T08:21:42;30.73;;;19.42;;
63259;SDS011;49390;51.380;0.098;2022-09-03T08:24:11;33.65;;;19.08;;
63259;SDS011;49390;51.380;0.098;2022-09-03T08:26:43;31.05;;;19.23;;
63259;SDS011;49390;51.380;0.098;2022-09-03T08:29:18;29.00;;;19.15;;
63259;SDS011;49390;51.380;0.098;2022-09-03T08:31:48;33.78;;;19.02;;
63259;SDS011;49390;51.380;0.098;2022-09-03T08:34:17;34.42;;;19.80;;
63259;SDS011;49390;51.380;0.098;2022-09-03T08:36:46;33.17;;;17.85;;
63259;SDS011;49390;51.380;0.098;2022-09-03T08:39:15;36.75;;;20.48;;
63259;SDS011;49390;51.380;0.098;2022-09-03T08:47:19;36.45;;;19.52;;
63259;SDS011;49390;51.380;0.098;2022-09-03T08:52:52;37.58;;;19.23;;
63259;SDS011;49390;51.380;0.098;2022-09-03T08:58:30;38.25;;;20.23;;
63259;SDS011;49390;51.380;0.098;2022-09-03T09:06:28;37.75;;;19.98;;
63259;SDS011;49390;51.380;0.098;2022-09-03T09:12:28;33.73;;;18.67;;
63259;SDS011;49390;51.380;0.098;2022-09-03T09:18:20;29.95;;;16.88;;
63259;SDS011;49390;51.380;0.098;2022-09-03T09:21:07;28.10;;;15.73;;
63259;SDS011;49390;51.380;0.098;2022-09-03T09:23:47;28.73;;;15.63;;
63259;SDS011;49390;51.380;0.098;2022-09-03T09:26:18;35.87;;;17.63;;
63259;SDS011;49390;51.380;0.098;2022-09-03T09:28:57;28.85;;;16.33;;
63259;SDS011;49390;51.380;0.098;2022-09-03T09:31:30;28.42;;;17.02;;
63259;SDS011;49390;51.380;0.098;2022-09-03T09:34:05;27.75;;;15.35;;
63259;SDS011;49390;51.380;0.098;2022-09-03T09:36:45;30.83;;;15.38;;
63259;SDS011;49390;51.380;0.098;2022-09-03T09:39:21;24.35;;;14.07;;
63259;SDS011;49390;51.380;0.098;2022-09-03T09:42:00;25.13;;;13.43;;
63259;SDS011;49390;51.380;0.098;2022-09-03T09:44:37;23.30;;;13.93;;
63259;SDS011;49390;51.380;0.098;2022-09-03T09:47:15;21.10;;;12.75;;
63259;SDS011;49390;51.380;0.098;2022-09-03T09:49:58;23.45;;;13.73;;
63259;SDS011;49390;51.380;0.098;2022-09-03T09:52:29;21.42;;;13.02;;
63259;SDS011;49390;51.380;0.098;2022-09-03T09:57:37;19.73;;;12.48;;
63259;SDS011;49390;51.380;0.098;2022-09-03T10:00:11;17.65;;;11.68;;
63259;SDS011;49390;51.380;0.098;2022-09-03T10:02:48;18.17;;;11.57;;
63259;SDS011;49390;51.380;0.098;2022-09-03T10:05:25;24.00;;;13.15;;
63259;SDS011;49390;51.380;0.098;2022-09-03T10:08:01;19.88;;;11.75;;
63259;SDS011;49390;51.380;0.098;2022-09-03T10:10:44;23.83;;;13.50;;
63259;SDS011;49390;51.380;0.098;2022-09-03T10:13:26;19.45;;;12.10;;
63259;SDS011;49390;51.380;0.098;2022-09-03T10:16:07;20.58;;;11.98;;
63259;SDS011;49390;51.380;0.098;2022-09-03T10:18:52;22.98;;;11.38;;
63259;SDS011;49390;51.380;0.098;2022-09-03T10:22:30;17.73;;;11.05;;
63259;SDS011;49390;51.380;0.098;2022-09-03T10:25:20;22.33;;;12.73;;
63259;SDS011;49390;51.380;0.098;2022-09-03T10:27:43;25.33;;;12.88;;
63259;SDS011;49390;51.380;0.098;2022-09-03T10:30:13;27.07;;;15.13;;
63259;SDS011;49390;51.380;0.098;2022-09-03T10:32:55;21.67;;;12.70;;
63259;SDS011;49390;51.380;0.098;2022-09-03T10:35:35;20.80;;;12.57;;
63259;SDS011;49390;51.380;0.098;2022-09-03T10:53:05;19.50;;;10.82;;
63259;SDS011;49390;51.380;0.098;2022-09-03T11:04:58;15.02;;;9.57;;
63259;SDS011;49390;51.380;0.098;2022-09-03T11:07:34;15.15;;;8.45;;
63259;SDS011;49390;51.380;0.098;2022-09-03T11:10:14;15.15;;;9.07;;
63259;SDS011;49390;51.380;0.098;2022-09-03T11:12:45;21.33;;;13.15;;
63259;SDS011;49390;51.380;0.098;2022-09-03T11:15:29;16.65;;;9.88;;
63259;SDS011;49390;51.380;0.098;2022-09-03T11:18:15;14.27;;;8.80;;
63259;SDS011;49390;51.380;0.098;2022-09-03T11:20:49;15.68;;;9.60;;
63259;SDS011;49390;51.380;0.098;2022-09-03T11:23:23;14.88;;;9.20;;
63259;SDS011;49390;51.380;0.098;2022-09-03T11:25:55;14.27;;;9.18;;
63259;SDS011;49390;51.380;0.098;2022-09-03T11:31:30;13.18;;;8.65;;
63259;SDS011;49390;51.380;0.098;2022-09-03T11:34:47;14.38;;;9.07;;
63259;SDS011;49390;51.380;0.098;2022-09-03T11:37:16;15.13;;;10.35;;
63259;SDS011;49390;51.380;0.098;2022-09-03T11:40:13;13.20;;;8.98;;
63259;SDS011;49390;51.380;0.098;2022-09-03T11:42:45;13.98;;;8.60;;
63259;SDS011;49390;51.380;0.098;2022-09-03T11:45:22;11.35;;;8.43;;
63259;SDS011;49390;51.380;0.098;2022-09-03T11:47:53;15.45;;;9.00;;
63259;SDS011;49390;51.380;0.098;2022-09-03T11:50:29;15.68;;;9.15;;
63259;SDS011;49390;51.380;0.098;2022-09-03T11:58:34;17.40;;;9.00;;
63259;SDS011;49390;51.380;0.098;2022-09-03T12:01:06;15.38;;;9.07;;
63259;SDS011;49390;51.380;0.098;2022-09-03T12:03:42;12.82;;;8.48;;
63259;SDS011;49390;51.380;0.098;2022-09-03T12:11:47;12.82;;;8.52;;
63259;SDS011;49390;51.380;0.098;2022-09-03T12:14:46;11.77;;;8.77;;
63259;SDS011;49390;51.380;0.098;2022-09-03T12:17:43;12.23;;;8.63;;
63259;SDS011;49390;51.380;0.098;2022-09-03T12:20:35;15.63;;;8.85;;
63259;SDS011;49390;51.380;0.098;2022-09-03T12:23:04;12.95;;;8.90;;
63259;SDS011;49390;51.380;0.098;2022-09-03T12:25:32;13.00;;;8.52;;
63259;SDS011;49390;51.380;0.098;2022-09-03T12:28:00;13.05;;;8.70;;
63259;SDS011;49390;51.380;0.098;2022-09-03T12:30:39;13.85;;;9.20;;
63259;SDS011;49390;51.380;0.098;2022-09-03T12:33:07;13.98;;;9.38;;
63259;SDS011;49390;51.380;0.098;2022-09-03T12:35:40;13.20;;;9.45;;
63259;SDS011;49390;51.380;0.098;2022-09-03T12:38:28;13.52;;;8.23;;
63259;SDS011;49390;51.380;0.098;2022-09-03T12:41:27;13.88;;;9.65;;
63259;SDS011;49390;51.380;0.098;2022-09-03T12:43:57;14.65;;;8.70;;
63259;SDS011;49390;51.380;0.098;2022-09-03T12:46:27;14.18;;;8.45;;
63259;SDS011;49390;51.380;0.098;2022-09-03T12:49:03;12.90;;;8.30;;
63259;SDS011;49390;51.380;0.098;2022-09-03T12:52:02;12.07;;;7.88;;
63259;SDS011;49390;51.380;0.098;2022-09-03T12:54:55;13.10;;;7.43;;
63259;SDS011;49390;51.380;0.098;2022-09-03T13:00:06;10.93;;;7.20;;
63259;SDS011;49390;51.380;0.098;2022-09-03T13:04:59;13.50;;;6.65;;
63259;SDS011;49390;51.380;0.098;2022-09-03T13:07:29;12.52;;;7.57;;
63259;SDS011;49390;51.380;0.098;2022-09-03T13:10:15;12.63;;;7.55;;
63259;SDS011;49390;51.380;0.098;2022-09-03T13:13:01;12.10;;;7.32;;
63259;SDS011;49390;51.380;0.098;2022-09-03T13:18:40;14.40;;;7.68;;
63259;SDS011;49390;51.380;0.098;2022-09-03T13:35:01;11.18;;;7.35;;
63259;SDS011;49390;51.380;0.098;2022-09-03T13:37:22;12.65;;;7.57;;
63259;SDS011;49390;51.380;0.098;2022-09-03T13:39:58;14.55;;;8.52;;
63259;SDS011;49390;51.380;0.098;2022-09-03T13:42:52;13.18;;;7.68;;
63259;SDS011;49390;51.380;0.098;2022-09-03T13:48:35;14.82;;;8.88;;
63259;SDS011;49390;51.380;0.098;2022-09-03T13:51:26;13.02;;;7.97;;
63259;SDS011;49390;51.380;0.098;2022-09-03T13:54:13;11.32;;;7.88;;
63259;SDS011;49390;51.380;0.098;2022-09-03T13:57:22;12.43;;;8.13;;
63259;SDS011;49390;51.380;0.098;2022-09-03T14:00:03;15.10;;;9.15;;
63259;SDS011;49390;51.380;0.098;2022-09-03T14:05:42;16.60;;;8.75;;
63259;SDS011;49390;51.380;0.098;2022-09-03T14:08:21;15.88;;;8.85;;
63259;SDS011;49390;51.380;0.098;2022-09-03T14:11:43;13.65;;;8.73;;
63259;SDS011;49390;51.380;0.098;2022-09-03T14:19:47;17.63;;;10.48;;
63259;SDS011;49390;51.380;0.098;2022-09-03T14:22:28;19.43;;;10.17;;
63259;SDS011;49390;51.380;0.098;2022-09-03T14:25:20;19.70;;;11.93;;
63259;SDS011;49390;51.380;0.098;2022-09-03T14:27:53;16.70;;;11.23;;
63259;SDS011;49390;51.380;0.098;2022-09-03T14:30:25;21.83;;;11.68;;
63259;SDS011;49390;51.380;0.098;2022-09-03T14:33:29;16.20;;;10.32;;
63259;SDS011;49390;51.380;0.098;2022-09-03T14:53:19;14.03;;;8.87;;
63259;SDS011;49390;51.380;0.098;2022-09-03T14:56:18;13.75;;;8.93;;
63259;SDS011;49390;51.380;0.098;2022-09-03T15:01:39;17.88;;;9.25;;
63259;SDS011;49390;51.380;0.098;2022-09-03T15:04:37;14.07;;;9.18;;
63259;SDS011;49390;51.380;0.098;2022-09-03T15:12:45;15.15;;;8.85;;
63259;SDS011;49390;51.380;0.098;2022-09-03T15:15:21;19.60;;;9.90;;
63259;SDS011;49390;51.380;0.098;2022-09-03T15:20:49;17.35;;;9.30;;
63259;SDS011;49390;51.380;0.098;2022-09-03T15:24:12;16.77;;;9.70;;
63259;SDS011;49390;51.380;0.098;2022-09-03T15:35:08;22.17;;;11.18;;
63259;SDS011;49390;51.380;0.098;2022-09-03T15:37:47;21.33;;;11.18;;
63259;SDS011;49390;51.380;0.098;2022-09-03T15:43:18;22.85;;;12.30;;
63259;SDS011;49390;51.380;0.098;2022-09-03T15:46:00;23.83;;;12.18;;
63259;SDS011;49390;51.380;0.098;2022-09-03T15:51:19;24.73;;;13.10;;
63259;SDS011;49390;51.380;0.098;2022-09-03T15:54:16;21.77;;;12.13;;
63259;SDS011;49390;51.380;0.098;2022-09-03T16:00:20;21.20;;;12.55;;
63259;SDS011;49390;51.380;0.098;2022-09-03T16:03:11;27.17;;;14.45;;
63259;SDS011;49390;51.380;0.098;2022-09-03T16:08:42;24.30;;;13.95;;
63259;SDS011;49390;51.380;0.098;2022-09-03T16:14:09;24.02;;;13.45;;
63259;SDS011;49390;51.380;0.098;2022-09-03T16:19:45;25.10;;;13.55;;
63259;SDS011;49390;51.380;0.098;2022-09-03T16:22:25;21.65;;;12.35;;
63259;SDS011;49390;51.380;0.098;2022-09-03T16:25:22;27.10;;;13.57;;
63259;SDS011;49390;51.380;0.098;2022-09-03T16:39:30;25.13;;;13.63;;
63259;SDS011;49390;51.380;0.098;2022-09-03T16:42:31;21.92;;;13.68;;
63259;SDS011;49390;51.380;0.098;2022-09-03T16:45:09;23.30;;;13.85;;
63259;SDS011;49390;51.380;0.098;2022-09-03T16:50:54;25.92;;;13.18;;
63259;SDS011;49390;51.380;0.098;2022-09-03T16:53:58;22.02;;;12.45;;
63259;SDS011;49390;51.380;0.098;2022-09-03T16:56:53;23.60;;;12.07;;
63259;SDS011;49390;51.380;0.098;2022-09-03T16:59:53;22.23;;;12.30;;
63259;SDS011;49390;51.380;0.098;2022-09-03T17:02:51;21.98;;;12.43;;
63259;SDS011;49390;51.380;0.098;2022-09-03T17:08:53;24.63;;;13.43;;
63259;SDS011;49390;51.380;0.098;2022-09-03T17:11:37;23.58;;;13.90;;
63259;SDS011;49390;51.380;0.098;2022-09-03T17:14:34;27.92;;;14.35;;
63259;SDS011;49390;51.380;0.098;2022-09-03T17:17:22;30.88;;;15.27;;
63259;SDS011;49390;51.380;0.098;2022-09-03T17:31:55;26.23;;;14.88;;
63259;SDS011;49390;51.380;0.098;2022-09-03T17:40:40;22.58;;;13.80;;
63259;SDS011;49390;51.380;0.098;2022-09-03T17:43:46;27.90;;;15.38;;
63259;SDS011;49390;51.380;0.098;2022-09-03T17:49:41;29.67;;;15.23;;
63259;SDS011;49390;51.380;0.098;2022-09-03T17:55:20;31.42;;;15.75;;
63259;SDS011;49390;51.380;0.098;2022-09-03T18:07:22;31.50;;;16.42;;
63259;SDS011;49390;51.380;0.098;2022-09-03T18:19:18;35.85;;;17.70;;
63259;SDS011;49390;51.380;0.098;2022-09-03T18:21:58;29.90;;;17.00;;
63259;SDS011;49390;51.380;0.098;2022-09-03T18:33:36;38.97;;;17.85;;
63259;SDS011;49390;51.380;0.098;2022-09-03T18:36:27;34.58;;;16.50;;
63259;SDS011;49390;51.380;0.098;2022-09-03T18:39:25;32.85;;;16.92;;
63259;SDS011;49390;51.380;0.098;2022-09-03T18:46:31;35.28;;;17.05;;
63259;SDS011;49390;51.380;0.098;2022-09-03T18:49:57;29.70;;;16.48;;
63259;SDS011;49390;51.380;0.098;2022-09-03T18:56:02;36.80;;;17.52;;
63259;SDS011;49390;51.380;0.098;2022-09-03T19:18:18;43.67;;;18.03;;
63259;SDS011;49390;51.380;0.098;2022-09-03T19:24:14;35.03;;;18.20;;
63259;SDS011;49390;51.380;0.098;2022-09-03T19:27:23;41.92;;;19.42;;
63259;SDS011;49390;51.380;0.098;2022-09-03T19:37:03;37.75;;;18.13;;
63259;SDS011;49390;51.380;0.098;2022-09-03T19:49:50;33.92;;;16.73;;
63259;SDS011;49390;51.380;0.098;2022-09-03T19:55:26;34.65;;;16.98;;
63259;SDS011;49390;51.380;0.098;2022-09-03T19:58:22;36.55;;;16.65;;
63259;SDS011;49390;51.380;0.098;2022-09-03T20:01:16;33.85;;;15.60;;
63259;SDS011;49390;51.380;0.098;2022-09-03T20:04:12;32.47;;;15.68;;
63259;SDS011;49390;51.380;0.098;2022-09-03T20:07:04;35.03;;;19.02;;
63259;SDS011;49390;51.380;0.098;2022-09-03T20:09:55;47.30;;;25.15;;
63259;SDS011;49390;51.380;0.098;2022-09-03T20:13:07;42.00;;;23.27;;
63259;SDS011;49390;51.380;0.098;2022-09-03T20:21:14;33.00;;;18.03;;
63259;SDS011;49390;51.380;0.098;2022-09-03T20:26:19;39.75;;;18.85;;
63259;SDS011;49390;51.380;0.098;2022-09-03T20:34:10;36.72;;;17.42;;
63259;SDS011;49390;51.380;0.098;2022-09-03T20:39:42;37.55;;;17.77;;
63259;SDS011;49390;51.380;0.098;2022-09-03T20:48:20;34.40;;;17.45;;
63259;SDS011;49390;51.380;0.098;2022-09-03T20:50:53;36.22;;;17.83;;
63259;SDS011;49390;51.380;0.098;2022-09-03T20:56:14;36.60;;;17.42;;
63259;SDS011;49390;51.380;0.098;2022-09-03T20:59:05;35.05;;;17.67;;
63259;SDS011;49390;51.380;0.098;2022-09-03T21:11:04;31.75;;;17.55;;
63259;SDS011;49390;51.380;0.098;2022-09-03T21:16:38;36.88;;;18.42;;
63259;SDS011;49390;51.380;0.098;2022-09-03T21:25:12;36.35;;;18.98;;
63259;SDS011;49390;51.380;0.098;2022-09-03T21:27:53;39.58;;;17.92;;
63259;SDS011;49390;51.380;0.098;2022-09-03T21:30:30;34.83;;;16.75;;
63259;SDS011;49390;51.380;0.098;2022-09-03T21:33:15;31.88;;;16.88;;